createdAt,value
2018-07-02T00:03:52.720Z,18.90
2018-07-02T00:08:47.936Z,18.70
2018-07-02T00:13:43.149Z,18.50
2018-07-02T00:18:38.301Z,18.50
2018-07-02T00:23:33.613Z,18.20
2018-07-02T00:28:28.619Z,18.20
2018-07-02T00:33:23.803Z,18.30
2018-07-02T00:38:36.000Z,18.20
2018-07-02T00:44:29.792Z,18.00
2018-07-02T00:49:39.529Z,18.00
2018-07-02T00:54:34.719Z,17.80
2018-07-02T00:59:29.979Z,17.80
2018-07-02T01:04:25.668Z,17.70
2018-07-02T01:09:25.109Z,17.60
2018-07-02T01:14:22.361Z,17.60
2018-07-02T01:19:42.617Z,17.60
2018-07-02T01:24:39.531Z,17.70
2018-07-02T01:29:37.124Z,17.40
2018-07-02T01:39:44.762Z,17.20
2018-07-02T01:46:20.629Z,17.10
2018-07-02T01:51:16.580Z,17.10
2018-07-02T02:06:53.868Z,16.80
2018-07-02T02:11:50.561Z,16.70
2018-07-02T02:16:46.561Z,16.70
2018-07-02T02:22:12.547Z,16.60
2018-07-02T02:27:07.743Z,16.70
2018-07-02T02:32:30.662Z,16.60
2018-07-02T02:37:27.954Z,16.50
2018-07-02T02:42:23.044Z,16.40
2018-07-02T02:47:18.351Z,16.40
2018-07-02T02:52:14.608Z,16.30
2018-07-02T02:57:09.700Z,16.30
2018-07-02T03:02:54.090Z,16.40
2018-07-02T03:07:49.387Z,16.30
2018-07-02T03:12:44.809Z,16.10
2018-07-02T03:17:41.746Z,16.10
2018-07-02T03:22:36.938Z,16.20
2018-07-02T03:28:23.053Z,16.10
2018-07-02T03:33:43.526Z,16.00
2018-07-02T03:38:38.561Z,16.00
2018-07-02T03:43:34.260Z,16.10
2018-07-02T03:48:31.465Z,16.00
2018-07-02T03:58:54.096Z,16.10
2018-07-02T04:04:06.036Z,16.10
2018-07-02T04:09:02.251Z,16.00
2018-07-02T04:13:57.483Z,16.10
2018-07-02T04:18:57.668Z,16.10
2018-07-02T04:23:54.641Z,16.10
2018-07-02T04:28:49.963Z,16.40
2018-07-02T04:33:59.619Z,16.40
2018-07-02T04:39:26.077Z,16.50
2018-07-02T04:44:21.152Z,16.60
2018-07-02T04:49:15.950Z,17.00
2018-07-02T04:59:07.782Z,17.40
2018-07-02T05:04:02.941Z,17.70
2018-07-02T05:08:57.862Z,18.00
2018-07-02T05:13:52.601Z,18.10
2018-07-02T05:18:47.375Z,18.30
2018-07-02T05:23:42.637Z,18.40
2018-07-02T05:28:37.797Z,18.60
2018-07-02T05:35:28.515Z,18.80
2018-07-02T05:40:32.193Z,19.00
2018-07-02T05:45:28.895Z,19.00
2018-07-02T05:50:25.233Z,19.10
2018-07-02T05:55:21.202Z,19.00
2018-07-02T06:01:16.288Z,18.80
2018-07-02T06:06:16.589Z,18.70
2018-07-02T06:11:33.103Z,19.00
2018-07-02T06:16:29.050Z,19.00
2018-07-02T06:21:23.917Z,19.00
2018-07-02T06:26:18.872Z,19.10
2018-07-02T06:31:13.670Z,19.00
2018-07-02T06:36:08.863Z,19.20
2018-07-02T07:03:15.236Z,19.30
2018-07-02T07:08:10.555Z,19.50
2018-07-02T07:13:05.769Z,20.40
2018-07-02T07:18:01.108Z,20.90
2018-07-02T07:22:56.833Z,21.10
2018-07-02T07:27:51.786Z,21.40
2018-07-02T07:32:46.678Z,21.40
2018-07-02T07:37:59.986Z,21.60
2018-07-02T07:42:56.367Z,21.70
2018-07-02T07:47:51.350Z,22.00
2018-07-02T07:52:47.235Z,22.00
2018-07-02T07:57:42.920Z,22.10
2018-07-02T08:02:37.823Z,22.30
2018-07-02T08:07:32.725Z,22.70
2018-07-02T08:12:27.704Z,22.90
2018-07-02T08:17:22.450Z,22.90
2018-07-02T08:22:17.747Z,23.00
2018-07-02T08:27:15.424Z,23.00
2018-07-02T08:32:23.934Z,23.40
2018-07-02T08:37:18.702Z,23.70
2018-07-02T08:42:13.436Z,24.20
2018-07-02T08:47:08.535Z,24.20
2018-07-02T08:52:03.332Z,24.60
2018-07-02T08:56:58.052Z,24.50
2018-07-02T09:01:55.171Z,24.50
2018-07-02T09:06:52.862Z,24.70
2018-07-02T09:11:47.642Z,24.80
2018-07-02T09:16:43.018Z,24.70
2018-07-02T09:26:52.956Z,25.70
2018-07-02T09:31:47.923Z,25.90
2018-07-02T09:36:43.785Z,26.10
2018-07-02T09:41:39.703Z,26.10
2018-07-02T09:46:34.432Z,25.70
2018-07-02T09:51:29.560Z,25.90
2018-07-02T09:56:24.418Z,25.90
2018-07-02T10:01:19.483Z,26.10
2018-07-02T10:06:14.350Z,26.00
2018-07-02T10:11:09.385Z,26.00
2018-07-02T10:16:04.269Z,26.40
2018-07-02T10:20:59.567Z,26.50
2018-07-02T10:25:54.629Z,26.70
2018-07-02T10:30:49.454Z,26.80
2018-07-02T10:35:44.386Z,27.00
2018-07-02T10:40:41.045Z,26.90
2018-07-02T10:45:35.959Z,26.80
2018-07-02T10:55:50.975Z,27.50
2018-07-02T11:00:46.000Z,27.70
2018-07-02T11:05:40.936Z,27.80
2018-07-02T11:10:35.810Z,27.90
2018-07-02T11:15:30.766Z,27.90
2018-07-02T11:20:25.766Z,28.10
2018-07-02T11:25:20.644Z,28.40
2018-07-02T11:30:15.585Z,28.60
2018-07-02T11:35:10.806Z,28.80
2018-07-02T11:40:06.167Z,28.50
2018-07-02T11:45:01.134Z,28.60
2018-07-02T11:49:55.992Z,28.70
2018-07-02T11:54:50.983Z,28.80
2018-07-02T11:59:46.520Z,28.80
2018-07-02T12:04:48.554Z,28.80
2018-07-02T12:15:10.652Z,29.00
2018-07-02T12:20:06.076Z,29.00
2018-07-02T12:25:00.951Z,28.70
2018-07-02T12:29:57.332Z,28.90
2018-07-02T12:34:52.376Z,28.90
2018-07-02T12:39:47.358Z,29.00
2018-07-02T12:44:42.447Z,29.00
2018-07-02T12:49:37.379Z,28.90
2018-07-02T12:54:32.394Z,28.70
2018-07-02T12:59:27.545Z,28.80
2018-07-02T13:04:23.405Z,28.90
2018-07-02T13:09:18.379Z,28.70
2018-07-02T13:14:13.306Z,28.60
2018-07-02T13:19:09.348Z,28.70
2018-07-02T13:24:04.341Z,28.70
2018-07-02T13:28:59.350Z,28.70
2018-07-02T13:33:55.243Z,28.70
2018-07-02T13:38:50.568Z,28.70
2018-07-02T13:43:45.585Z,28.60
2018-07-02T13:48:42.559Z,28.60
2018-07-02T13:53:37.659Z,28.60
2018-07-02T13:58:32.802Z,28.70
2018-07-02T14:03:30.119Z,28.60
2018-07-02T14:14:03.641Z,28.30
2018-07-02T14:18:58.219Z,28.30
2018-07-02T14:23:52.840Z,28.60
2018-07-02T14:28:47.651Z,28.90
2018-07-02T14:33:42.254Z,28.70
2018-07-02T14:38:36.815Z,28.70
2018-07-02T14:43:31.402Z,28.50
2018-07-02T14:48:25.993Z,28.50
2018-07-02T14:53:20.613Z,28.40
2018-07-02T14:58:15.200Z,28.50
2018-07-02T15:03:09.832Z,28.40
2018-07-02T15:08:04.495Z,28.50
2018-07-02T15:12:59.087Z,28.40
2018-07-02T15:17:53.787Z,28.30
2018-07-02T15:22:48.459Z,28.10
2018-07-02T15:27:43.215Z,28.00
2018-07-02T15:32:37.829Z,28.20
2018-07-02T15:37:32.459Z,28.10
2018-07-02T15:42:27.125Z,28.00
2018-07-02T15:47:21.781Z,28.20
2018-07-02T15:57:10.715Z,28.10
2018-07-02T16:02:05.437Z,28.10
2018-07-02T16:07:00.112Z,28.10
2018-07-02T16:11:54.730Z,28.10
2018-07-02T16:16:49.448Z,28.10
2018-07-02T16:21:44.132Z,28.00
2018-07-02T16:26:38.791Z,27.90
2018-07-02T16:31:33.436Z,27.90
2018-07-02T16:36:28.081Z,27.90
2018-07-02T16:41:22.714Z,28.00
2018-07-02T16:46:17.441Z,27.90
2018-07-02T16:51:12.006Z,27.90
2018-07-02T16:56:06.809Z,27.80
2018-07-02T17:01:01.475Z,27.80
2018-07-02T17:10:50.414Z,27.70
2018-07-02T17:15:45.140Z,27.70
2018-07-02T17:20:39.765Z,27.60
2018-07-02T17:25:34.375Z,27.50
2018-07-02T17:30:29.008Z,27.40
2018-07-02T17:35:23.643Z,27.40
2018-07-02T17:40:18.215Z,27.40
2018-07-02T17:45:12.836Z,27.30
2018-07-02T17:50:07.715Z,27.30
2018-07-02T17:55:02.310Z,27.40
2018-07-02T17:59:56.927Z,27.20
2018-07-02T18:04:51.585Z,27.20
2018-07-02T18:09:46.204Z,27.10
2018-07-02T18:14:40.832Z,26.90
2018-07-02T18:19:35.535Z,26.90
2018-07-02T18:24:30.208Z,26.80
2018-07-02T18:29:24.828Z,26.70
2018-07-02T18:34:19.479Z,26.60
2018-07-02T18:39:14.228Z,26.30
2018-07-02T18:44:09.187Z,26.10
2018-07-02T18:53:58.136Z,26.10
2018-07-02T18:58:52.859Z,25.90
2018-07-02T19:03:47.508Z,25.70
2018-07-02T19:08:42.224Z,25.60
2018-07-02T19:13:36.822Z,25.60
2018-07-02T19:23:26.375Z,25.50
2018-07-02T19:28:20.988Z,25.10
2018-07-02T19:33:15.637Z,25.00
2018-07-02T19:38:10.515Z,24.80
2018-07-02T19:43:05.156Z,24.60
2018-07-02T19:47:59.835Z,24.60
2018-07-02T19:52:54.504Z,24.40
2018-07-02T19:57:49.120Z,24.40
2018-07-02T20:02:43.824Z,24.40
2018-07-02T20:07:38.421Z,24.40
2018-07-02T20:12:33.201Z,24.20
2018-07-02T20:17:27.857Z,24.10
2018-07-02T20:22:22.480Z,24.00
2018-07-02T20:27:17.148Z,23.90
2018-07-02T20:32:11.772Z,23.70
2018-07-02T20:37:06.599Z,23.50
2018-07-02T20:42:01.281Z,23.50
2018-07-02T20:46:55.923Z,23.60
2018-07-02T20:51:50.570Z,23.60
2018-07-02T20:56:45.195Z,23.60
2018-07-02T21:01:39.919Z,23.50
2018-07-02T21:06:34.535Z,23.40
2018-07-02T21:11:29.177Z,23.30
2018-07-02T21:16:23.791Z,23.30
2018-07-02T21:21:18.684Z,23.10
2018-07-02T21:26:13.332Z,22.90
2018-07-02T21:31:07.969Z,22.80
2018-07-02T21:36:02.656Z,22.60
2018-07-02T21:40:58.435Z,22.60
2018-07-02T21:45:53.101Z,22.60
2018-07-02T21:50:47.732Z,22.40
2018-07-02T21:55:42.343Z,22.40
2018-07-02T22:00:37.781Z,22.30
2018-07-02T22:05:32.489Z,22.10
2018-07-02T22:15:21.441Z,22.10
2018-07-02T22:20:16.072Z,21.90
2018-07-02T22:25:10.762Z,21.60
2018-07-02T22:30:05.478Z,21.60
2018-07-02T22:35:00.117Z,21.50
2018-07-02T22:39:54.767Z,21.40
2018-07-02T22:44:49.363Z,21.40
2018-07-02T22:49:43.998Z,21.30
2018-07-02T22:54:38.627Z,21.40
2018-07-02T22:59:33.276Z,21.20
2018-07-02T23:04:28.064Z,21.20
2018-07-02T23:09:23.833Z,21.00
2018-07-02T23:14:18.518Z,20.80
2018-07-02T23:19:13.104Z,20.80
2018-07-02T23:24:07.781Z,20.80
2018-07-02T23:29:02.358Z,20.70
2018-07-02T23:33:57.029Z,20.50
2018-07-02T23:38:51.637Z,20.60
2018-07-02T23:43:46.226Z,20.50
2018-07-02T23:48:40.884Z,20.60
2018-07-02T23:53:35.488Z,20.50
2018-07-02T23:58:30.199Z,20.50
